sensor_id;sensor_type;location;lat;lon;timestamp;P1;durP1;ratioP1;P2;durP2;ratioP2
13432;SDS011;6789;47.678;9.158;2023-09-19T00:00:12;1.58;;;1.25;;
13432;SDS011;6789;47.678;9.158;2023-09-19T00:05:04;2.65;;;1.02;;
13432;SDS011;6789;47.678;9.158;2023-09-19T00:09:56;2.25;;;1.10;;
13432;SDS011;6789;47.678;9.158;2023-09-19T00:14:48;2.53;;;1.35;;
13432;SDS011;6789;47.678;9.158;2023-09-19T00:19:40;2.97;;;1.40;;
13432;SDS011;6789;47.678;9.158;2023-09-19T00:24:34;3.05;;;1.30;;
13432;SDS011;6789;47.678;9.158;2023-09-19T00:29:25;2.65;;;1.30;;
13432;SDS011;6789;47.678;9.158;2023-09-19T00:34:20;3.33;;;1.40;;
13432;SDS011;6789;47.678;9.158;2023-09-19T00:39:12;2.80;;;1.10;;
13432;SDS011;6789;47.678;9.158;2023-09-19T00:44:04;2.78;;;1.33;;
13432;SDS011;6789;47.678;9.158;2023-09-19T00:48:56;1.88;;;1.40;;
13432;SDS011;6789;47.678;9.158;2023-09-19T00:53:48;2.38;;;1.30;;
13432;SDS011;6789;47.678;9.158;2023-09-19T00:58:40;2.55;;;1.15;;
13432;SDS011;6789;47.678;9.158;2023-09-19T01:03:38;3.20;;;1.23;;
13432;SDS011;6789;47.678;9.158;2023-09-19T01:08:32;2.17;;;1.05;;
13432;SDS011;6789;47.678;9.158;2023-09-19T01:13:29;3.65;;;1.15;;
13432;SDS011;6789;47.678;9.158;2023-09-19T01:29:50;2.92;;;1.25;;
13432;SDS011;6789;47.678;9.158;2023-09-19T01:34:54;1.58;;;1.00;;
13432;SDS011;6789;47.678;9.158;2023-09-19T01:40:07;1.85;;;1.17;;
13432;SDS011;6789;47.678;9.158;2023-09-19T01:45:18;2.55;;;1.20;;
13432;SDS011;6789;47.678;9.158;2023-09-19T01:50:34;3.28;;;1.20;;
13432;SDS011;6789;47.678;9.158;2023-09-19T01:55:36;1.63;;;1.13;;
13432;SDS011;6789;47.678;9.158;2023-09-19T02:00:35;2.35;;;1.30;;
13432;SDS011;6789;47.678;9.158;2023-09-19T02:05:33;2.17;;;1.10;;
13432;SDS011;6789;47.678;9.158;2023-09-19T02:10:25;2.15;;;1.20;;
13432;SDS011;6789;47.678;9.158;2023-09-19T02:15:17;1.20;;;1.10;;
13432;SDS011;6789;47.678;9.158;2023-09-19T02:20:10;3.83;;;1.23;;
13432;SDS011;6789;47.678;9.158;2023-09-19T02:25:05;2.50;;;1.30;;
13432;SDS011;6789;47.678;9.158;2023-09-19T02:29:58;2.45;;;1.40;;
13432;SDS011;6789;47.678;9.158;2023-09-19T02:34:53;2.15;;;1.30;;
13432;SDS011;6789;47.678;9.158;2023-09-19T02:39:45;1.13;;;1.02;;
13432;SDS011;6789;47.678;9.158;2023-09-19T02:44:37;2.90;;;1.30;;
13432;SDS011;6789;47.678;9.158;2023-09-19T02:49:29;3.65;;;1.25;;
13432;SDS011;6789;47.678;9.158;2023-09-19T02:54:21;2.10;;;1.50;;
13432;SDS011;6789;47.678;9.158;2023-09-19T02:59:14;1.60;;;1.20;;
13432;SDS011;6789;47.678;9.158;2023-09-19T03:04:07;1.58;;;1.10;;
13432;SDS011;6789;47.678;9.158;2023-09-19T03:08:59;2.10;;;1.10;;
13432;SDS011;6789;47.678;9.158;2023-09-19T03:13:54;4.13;;;1.20;;
13432;SDS011;6789;47.678;9.158;2023-09-19T03:18:48;1.75;;;1.20;;
13432;SDS011;6789;47.678;9.158;2023-09-19T03:23:40;1.60;;;1.15;;
13432;SDS011;6789;47.678;9.158;2023-09-19T03:28:33;2.22;;;1.40;;
13432;SDS011;6789;47.678;9.158;2023-09-19T03:33:26;2.28;;;1.10;;
13432;SDS011;6789;47.678;9.158;2023-09-19T03:38:17;2.05;;;1.20;;
13432;SDS011;6789;47.678;9.158;2023-09-19T03:43:09;1.80;;;1.40;;
13432;SDS011;6789;47.678;9.158;2023-09-19T03:48:01;2.60;;;1.15;;
13432;SDS011;6789;47.678;9.158;2023-09-19T03:52:56;1.98;;;1.08;;
13432;SDS011;6789;47.678;9.158;2023-09-19T03:57:48;3.25;;;0.90;;
13432;SDS011;6789;47.678;9.158;2023-09-19T04:02:55;1.45;;;1.10;;
13432;SDS011;6789;47.678;9.158;2023-09-19T04:07:48;2.55;;;1.38;;
13432;SDS011;6789;47.678;9.158;2023-09-19T04:12:41;2.08;;;1.30;;
13432;SDS011;6789;47.678;9.158;2023-09-19T04:17:45;3.40;;;1.13;;
13432;SDS011;6789;47.678;9.158;2023-09-19T04:22:51;1.60;;;1.00;;
13432;SDS011;6789;47.678;9.158;2023-09-19T04:27:43;2.00;;;1.20;;
13432;SDS011;6789;47.678;9.158;2023-09-19T04:32:35;1.85;;;1.10;;
13432;SDS011;6789;47.678;9.158;2023-09-19T04:37:30;3.97;;;1.30;;
13432;SDS011;6789;47.678;9.158;2023-09-19T04:42:22;1.65;;;0.95;;
13432;SDS011;6789;47.678;9.158;2023-09-19T04:47:16;1.52;;;1.30;;
13432;SDS011;6789;47.678;9.158;2023-09-19T04:52:07;4.40;;;1.20;;
13432;SDS011;6789;47.678;9.158;2023-09-19T04:56:59;2.83;;;1.38;;
13432;SDS011;6789;47.678;9.158;2023-09-19T05:01:54;2.42;;;1.70;;
13432;SDS011;6789;47.678;9.158;2023-09-19T05:06:47;1.73;;;1.20;;
13432;SDS011;6789;47.678;9.158;2023-09-19T05:11:39;2.47;;;1.15;;
13432;SDS011;6789;47.678;9.158;2023-09-19T05:16:30;1.27;;;1.02;;
13432;SDS011;6789;47.678;9.158;2023-09-19T05:21:22;1.98;;;1.20;;
13432;SDS011;6789;47.678;9.158;2023-09-19T05:26:15;2.92;;;1.30;;
13432;SDS011;6789;47.678;9.158;2023-09-19T05:31:07;2.63;;;1.35;;
13432;SDS011;6789;47.678;9.158;2023-09-19T05:35:59;2.17;;;1.27;;
13432;SDS011;6789;47.678;9.158;2023-09-19T05:40:50;2.20;;;1.10;;
13432;SDS011;6789;47.678;9.158;2023-09-19T05:45:42;3.55;;;1.02;;
13432;SDS011;6789;47.678;9.158;2023-09-19T05:50:34;2.05;;;0.90;;
13432;SDS011;6789;47.678;9.158;2023-09-19T05:55:27;6.85;;;1.73;;
13432;SDS011;6789;47.678;9.158;2023-09-19T06:00:20;2.45;;;1.20;;
13432;SDS011;6789;47.678;9.158;2023-09-19T06:05:17;1.10;;;1.00;;
13432;SDS011;6789;47.678;9.158;2023-09-19T06:10:09;2.10;;;1.13;;
13432;SDS011;6789;47.678;9.158;2023-09-19T06:15:01;4.38;;;1.05;;
13432;SDS011;6789;47.678;9.158;2023-09-19T06:19:53;2.13;;;1.20;;
13432;SDS011;6789;47.678;9.158;2023-09-19T06:24:46;2.03;;;1.42;;
13432;SDS011;6789;47.678;9.158;2023-09-19T06:29:39;1.08;;;0.80;;
13432;SDS011;6789;47.678;9.158;2023-09-19T06:34:31;1.63;;;1.00;;
13432;SDS011;6789;47.678;9.158;2023-09-19T06:39:22;1.35;;;0.77;;
13432;SDS011;6789;47.678;9.158;2023-09-19T06:44:31;0.85;;;0.70;;
13432;SDS011;6789;47.678;9.158;2023-09-19T06:49:23;2.08;;;1.40;;
13432;SDS011;6789;47.678;9.158;2023-09-19T06:54:14;4.32;;;1.38;;
13432;SDS011;6789;47.678;9.158;2023-09-19T06:59:09;2.20;;;1.13;;
13432;SDS011;6789;47.678;9.158;2023-09-19T07:04:00;1.38;;;0.65;;
13432;SDS011;6789;47.678;9.158;2023-09-19T07:08:52;2.42;;;1.42;;
13432;SDS011;6789;47.678;9.158;2023-09-19T07:13:45;1.25;;;0.88;;
13432;SDS011;6789;47.678;9.158;2023-09-19T07:18:39;1.20;;;0.90;;
13432;SDS011;6789;47.678;9.158;2023-09-19T07:23:31;1.75;;;0.80;;
13432;SDS011;6789;47.678;9.158;2023-09-19T07:28:33;4.00;;;0.90;;
13432;SDS011;6789;47.678;9.158;2023-09-19T07:33:27;2.13;;;0.95;;
13432;SDS011;6789;47.678;9.158;2023-09-19T07:38:52;2.25;;;1.00;;
13432;SDS011;6789;47.678;9.158;2023-09-19T07:43:59;2.63;;;1.15;;
13432;SDS011;6789;47.678;9.158;2023-09-19T07:48:52;1.60;;;0.88;;
13432;SDS011;6789;47.678;9.158;2023-09-19T07:53:48;3.13;;;1.98;;
13432;SDS011;6789;47.678;9.158;2023-09-19T07:58:42;4.15;;;1.15;;
13432;SDS011;6789;47.678;9.158;2023-09-19T08:03:35;1.90;;;0.90;;
13432;SDS011;6789;47.678;9.158;2023-09-19T08:08:34;1.33;;;0.70;;
13432;SDS011;6789;47.678;9.158;2023-09-19T08:13:28;1.75;;;1.08;;
13432;SDS011;6789;47.678;9.158;2023-09-19T08:18:22;4.97;;;1.08;;
13432;SDS011;6789;47.678;9.158;2023-09-19T08:23:15;2.20;;;1.10;;
13432;SDS011;6789;47.678;9.158;2023-09-19T08:28:09;3.92;;;1.23;;
13432;SDS011;6789;47.678;9.158;2023-09-19T08:33:03;4.38;;;1.38;;
13432;SDS011;6789;47.678;9.158;2023-09-19T08:37:55;1.08;;;0.85;;
13432;SDS011;6789;47.678;9.158;2023-09-19T08:42:51;3.55;;;1.38;;
13432;SDS011;6789;47.678;9.158;2023-09-19T08:47:46;1.90;;;0.90;;
13432;SDS011;6789;47.678;9.158;2023-09-19T08:52:48;3.67;;;1.38;;
13432;SDS011;6789;47.678;9.158;2023-09-19T08:57:47;2.05;;;1.65;;
13432;SDS011;6789;47.678;9.158;2023-09-19T09:02:41;2.15;;;1.30;;
13432;SDS011;6789;47.678;9.158;2023-09-19T09:07:49;2.38;;;1.10;;
13432;SDS011;6789;47.678;9.158;2023-09-19T09:12:57;1.90;;;1.65;;
13432;SDS011;6789;47.678;9.158;2023-09-19T09:17:53;2.47;;;1.13;;
13432;SDS011;6789;47.678;9.158;2023-09-19T09:23:06;1.80;;;1.00;;
13432;SDS011;6789;47.678;9.158;2023-09-19T09:28:02;1.50;;;1.15;;
13432;SDS011;6789;47.678;9.158;2023-09-19T09:33:07;2.83;;;1.20;;
13432;SDS011;6789;47.678;9.158;2023-09-19T09:38:08;3.22;;;1.40;;
13432;SDS011;6789;47.678;9.158;2023-09-19T09:43:02;1.52;;;1.00;;
13432;SDS011;6789;47.678;9.158;2023-09-19T09:47:55;1.95;;;0.85;;
13432;SDS011;6789;47.678;9.158;2023-09-19T09:52:53;3.65;;;1.27;;
13432;SDS011;6789;47.678;9.158;2023-09-19T09:58:15;2.35;;;1.17;;
13432;SDS011;6789;47.678;9.158;2023-09-19T10:03:20;1.70;;;1.02;;
13432;SDS011;6789;47.678;9.158;2023-09-19T10:08:41;3.20;;;1.10;;
13432;SDS011;6789;47.678;9.158;2023-09-19T10:14:13;3.83;;;1.30;;
13432;SDS011;6789;47.678;9.158;2023-09-19T10:19:10;1.75;;;1.40;;
13432;SDS011;6789;47.678;9.158;2023-09-19T10:24:35;5.13;;;1.90;;
13432;SDS011;6789;47.678;9.158;2023-09-19T10:29:44;2.90;;;1.02;;
13432;SDS011;6789;47.678;9.158;2023-09-19T10:34:46;5.38;;;1.10;;
13432;SDS011;6789;47.678;9.158;2023-09-19T10:39:53;1.88;;;1.05;;
13432;SDS011;6789;47.678;9.158;2023-09-19T10:44:50;2.05;;;1.10;;
13432;SDS011;6789;47.678;9.158;2023-09-19T10:50:00;1.50;;;1.13;;
13432;SDS011;6789;47.678;9.158;2023-09-19T10:55:11;2.70;;;1.25;;
13432;SDS011;6789;47.678;9.158;2023-09-19T11:00:13;2.63;;;1.30;;
13432;SDS011;6789;47.678;9.158;2023-09-19T11:05:16;1.52;;;1.05;;
13432;SDS011;6789;47.678;9.158;2023-09-19T11:10:07;2.70;;;1.23;;
13432;SDS011;6789;47.678;9.158;2023-09-19T11:16:02;1.15;;;1.05;;
13432;SDS011;6789;47.678;9.158;2023-09-19T11:20:49;2.47;;;1.02;;
13432;SDS011;6789;47.678;9.158;2023-09-19T11:26:44;3.25;;;1.27;;
13432;SDS011;6789;47.678;9.158;2023-09-19T11:31:42;4.05;;;1.27;;
13432;SDS011;6789;47.678;9.158;2023-09-19T11:36:36;2.03;;;0.80;;
13432;SDS011;6789;47.678;9.158;2023-09-19T11:41:41;1.30;;;0.95;;
13432;SDS011;6789;47.678;9.158;2023-09-19T11:46:52;1.42;;;1.00;;
13432;SDS011;6789;47.678;9.158;2023-09-19T11:51:48;3.08;;;1.48;;
13432;SDS011;6789;47.678;9.158;2023-09-19T11:56:46;3.20;;;1.55;;
13432;SDS011;6789;47.678;9.158;2023-09-19T12:01:50;2.05;;;1.50;;
13432;SDS011;6789;47.678;9.158;2023-09-19T12:06:56;4.18;;;1.80;;
13432;SDS011;6789;47.678;9.158;2023-09-19T12:11:49;2.15;;;1.20;;
13432;SDS011;6789;47.678;9.158;2023-09-19T12:16:53;1.48;;;1.25;;
13432;SDS011;6789;47.678;9.158;2023-09-19T12:22:05;1.55;;;1.05;;
13432;SDS011;6789;47.678;9.158;2023-09-19T12:26:59;3.70;;;1.08;;
13432;SDS011;6789;47.678;9.158;2023-09-19T12:31:57;2.28;;;0.98;;
13432;SDS011;6789;47.678;9.158;2023-09-19T12:37:03;2.63;;;1.10;;
13432;SDS011;6789;47.678;9.158;2023-09-19T12:42:13;2.65;;;1.10;;
13432;SDS011;6789;47.678;9.158;2023-09-19T12:47:14;3.10;;;0.88;;
13432;SDS011;6789;47.678;9.158;2023-09-19T12:52:16;2.13;;;1.13;;
13432;SDS011;6789;47.678;9.158;2023-09-19T12:57:22;1.63;;;1.08;;
13432;SDS011;6789;47.678;9.158;2023-09-19T13:02:17;4.85;;;3.60;;
13432;SDS011;6789;47.678;9.158;2023-09-19T13:07:39;1.65;;;1.27;;
13432;SDS011;6789;47.678;9.158;2023-09-19T13:12:41;1.52;;;1.00;;
13432;SDS011;6789;47.678;9.158;2023-09-19T13:17:43;1.35;;;1.00;;
13432;SDS011;6789;47.678;9.158;2023-09-19T13:22:41;2.15;;;1.30;;
13432;SDS011;6789;47.678;9.158;2023-09-19T13:27:57;1.30;;;0.82;;
13432;SDS011;6789;47.678;9.158;2023-09-19T13:32:50;2.03;;;0.93;;
13432;SDS011;6789;47.678;9.158;2023-09-19T13:37:44;1.95;;;0.90;;
13432;SDS011;6789;47.678;9.158;2023-09-19T13:42:40;3.10;;;1.50;;
13432;SDS011;6789;47.678;9.158;2023-09-19T13:47:33;1.30;;;1.00;;
13432;SDS011;6789;47.678;9.158;2023-09-19T13:52:28;1.10;;;1.00;;
13432;SDS011;6789;47.678;9.158;2023-09-19T13:57:22;1.85;;;1.25;;
13432;SDS011;6789;47.678;9.158;2023-09-19T14:02:15;2.55;;;1.10;;
13432;SDS011;6789;47.678;9.158;2023-09-19T14:07:09;7.07;;;1.15;;
13432;SDS011;6789;47.678;9.158;2023-09-19T14:12:02;2.47;;;1.20;;
13432;SDS011;6789;47.678;9.158;2023-09-19T14:17:08;2.08;;;1.20;;
13432;SDS011;6789;47.678;9.158;2023-09-19T14:22:14;3.30;;;1.08;;
13432;SDS011;6789;47.678;9.158;2023-09-19T14:27:30;1.15;;;1.05;;
13432;SDS011;6789;47.678;9.158;2023-09-19T14:32:22;3.30;;;1.00;;
13432;SDS011;6789;47.678;9.158;2023-09-19T14:37:17;1.10;;;0.95;;
13432;SDS011;6789;47.678;9.158;2023-09-19T14:42:08;2.28;;;1.00;;
13432;SDS011;6789;47.678;9.158;2023-09-19T14:47:01;1.55;;;1.00;;
13432;SDS011;6789;47.678;9.158;2023-09-19T14:51:53;1.40;;;0.90;;
13432;SDS011;6789;47.678;9.158;2023-09-19T14:56:44;1.60;;;1.00;;
13432;SDS011;6789;47.678;9.158;2023-09-19T15:01:36;1.42;;;0.90;;
13432;SDS011;6789;47.678;9.158;2023-09-19T15:06:29;0.80;;;0.75;;
13432;SDS011;6789;47.678;9.158;2023-09-19T15:11:21;2.45;;;1.00;;
13432;SDS011;6789;47.678;9.158;2023-09-19T15:16:13;2.38;;;1.20;;
13432;SDS011;6789;47.678;9.158;2023-09-19T15:21:06;1.83;;;1.05;;
13432;SDS011;6789;47.678;9.158;2023-09-19T15:26:01;1.73;;;1.25;;
13432;SDS011;6789;47.678;9.158;2023-09-19T15:31:03;2.42;;;1.20;;
13432;SDS011;6789;47.678;9.158;2023-09-19T15:36:08;1.45;;;0.90;;
13432;SDS011;6789;47.678;9.158;2023-09-19T15:41:03;1.80;;;0.95;;
13432;SDS011;6789;47.678;9.158;2023-09-19T15:46:00;1.67;;;0.95;;
13432;SDS011;6789;47.678;9.158;2023-09-19T15:50:53;2.25;;;1.00;;
13432;SDS011;6789;47.678;9.158;2023-09-19T15:55:46;1.23;;;0.90;;
13432;SDS011;6789;47.678;9.158;2023-09-19T16:00:39;1.80;;;1.02;;
13432;SDS011;6789;47.678;9.158;2023-09-19T16:05:35;1.70;;;1.50;;
13432;SDS011;6789;47.678;9.158;2023-09-19T16:10:42;2.30;;;1.45;;
13432;SDS011;6789;47.678;9.158;2023-09-19T16:15:39;4.85;;;1.23;;
13432;SDS011;6789;47.678;9.158;2023-09-19T16:20:35;3.35;;;1.20;;
13432;SDS011;6789;47.678;9.158;2023-09-19T16:25:29;1.42;;;0.90;;
13432;SDS011;6789;47.678;9.158;2023-09-19T16:30:21;4.13;;;1.30;;
13432;SDS011;6789;47.678;9.158;2023-09-19T16:35:13;1.13;;;0.90;;
13432;SDS011;6789;47.678;9.158;2023-09-19T16:40:05;1.30;;;0.90;;
13432;SDS011;6789;47.678;9.158;2023-09-19T16:44:59;1.63;;;1.30;;
13432;SDS011;6789;47.678;9.158;2023-09-19T16:49:51;2.63;;;1.10;;
13432;SDS011;6789;47.678;9.158;2023-09-19T16:54:44;1.83;;;1.13;;
13432;SDS011;6789;47.678;9.158;2023-09-19T16:59:35;1.23;;;1.10;;
13432;SDS011;6789;47.678;9.158;2023-09-19T17:04:30;3.92;;;1.40;;
13432;SDS011;6789;47.678;9.158;2023-09-19T17:09:37;1.40;;;1.25;;
13432;SDS011;6789;47.678;9.158;2023-09-19T17:14:33;3.28;;;1.20;;
13432;SDS011;6789;47.678;9.158;2023-09-19T17:19:27;1.27;;;1.00;;
13432;SDS011;6789;47.678;9.158;2023-09-19T17:24:32;1.67;;;1.35;;
13432;SDS011;6789;47.678;9.158;2023-09-19T17:29:34;2.67;;;1.38;;
13432;SDS011;6789;47.678;9.158;2023-09-19T17:34:26;2.35;;;1.20;;
13432;SDS011;6789;47.678;9.158;2023-09-19T17:39:29;1.73;;;1.23;;
13432;SDS011;6789;47.678;9.158;2023-09-19T17:44:22;2.88;;;1.38;;
13432;SDS011;6789;47.678;9.158;2023-09-19T17:49:13;2.58;;;1.30;;
13432;SDS011;6789;47.678;9.158;2023-09-19T17:54:05;2.40;;;1.60;;
13432;SDS011;6789;47.678;9.158;2023-09-19T17:59:01;3.17;;;1.42;;
13432;SDS011;6789;47.678;9.158;2023-09-19T18:04:07;3.88;;;1.65;;
13432;SDS011;6789;47.678;9.158;2023-09-19T18:09:00;3.08;;;1.70;;
13432;SDS011;6789;47.678;9.158;2023-09-19T18:13:53;2.97;;;1.92;;
13432;SDS011;6789;47.678;9.158;2023-09-19T18:18:49;2.58;;;1.52;;
13432;SDS011;6789;47.678;9.158;2023-09-19T18:23:56;2.85;;;1.77;;
13432;SDS011;6789;47.678;9.158;2023-09-19T18:29:05;3.60;;;2.22;;
13432;SDS011;6789;47.678;9.158;2023-09-19T18:34:01;2.97;;;2.40;;
13432;SDS011;6789;47.678;9.158;2023-09-19T18:38:54;6.00;;;3.20;;
13432;SDS011;6789;47.678;9.158;2023-09-19T18:43:47;6.07;;;2.33;;
13432;SDS011;6789;47.678;9.158;2023-09-19T18:48:41;5.63;;;2.55;;
13432;SDS011;6789;47.678;9.158;2023-09-19T18:54:10;5.82;;;2.95;;
13432;SDS011;6789;47.678;9.158;2023-09-19T18:59:19;5.53;;;2.92;;
13432;SDS011;6789;47.678;9.158;2023-09-19T19:04:17;2.75;;;2.40;;
13432;SDS011;6789;47.678;9.158;2023-09-19T19:09:12;3.03;;;2.22;;
13432;SDS011;6789;47.678;9.158;2023-09-19T19:14:07;4.13;;;2.70;;
13432;SDS011;6789;47.678;9.158;2023-09-19T19:19:03;5.43;;;2.70;;
13432;SDS011;6789;47.678;9.158;2023-09-19T19:24:15;4.20;;;3.08;;
13432;SDS011;6789;47.678;9.158;2023-09-19T19:29:14;4.70;;;3.40;;
13432;SDS011;6789;47.678;9.158;2023-09-19T19:34:11;6.07;;;3.50;;
13432;SDS011;6789;47.678;9.158;2023-09-19T19:39:08;4.40;;;3.40;;
13432;SDS011;6789;47.678;9.158;2023-09-19T19:44:17;5.00;;;3.75;;
13432;SDS011;6789;47.678;9.158;2023-09-19T19:49:26;4.88;;;3.55;;
13432;SDS011;6789;47.678;9.158;2023-09-19T19:54:27;5.88;;;4.07;;
13432;SDS011;6789;47.678;9.158;2023-09-19T19:59:21;6.05;;;3.38;;
13432;SDS011;6789;47.678;9.158;2023-09-19T20:04:15;3.33;;;2.38;;
13432;SDS011;6789;47.678;9.158;2023-09-19T20:09:15;5.32;;;3.10;;
13432;SDS011;6789;47.678;9.158;2023-09-19T20:14:11;3.30;;;2.53;;
13432;SDS011;6789;47.678;9.158;2023-09-19T20:19:04;3.00;;;2.20;;
13432;SDS011;6789;47.678;9.158;2023-09-19T20:24:10;3.50;;;2.53;;
13432;SDS011;6789;47.678;9.158;2023-09-19T20:29:07;4.53;;;2.10;;
13432;SDS011;6789;47.678;9.158;2023-09-19T20:34:13;3.42;;;1.85;;
13432;SDS011;6789;47.678;9.158;2023-09-19T20:39:07;3.30;;;2.05;;
13432;SDS011;6789;47.678;9.158;2023-09-19T20:44:18;3.85;;;1.70;;
13432;SDS011;6789;47.678;9.158;2023-09-19T20:49:11;3.40;;;1.98;;
13432;SDS011;6789;47.678;9.158;2023-09-19T20:54:08;3.15;;;2.13;;
13432;SDS011;6789;47.678;9.158;2023-09-19T20:59:07;2.45;;;1.90;;
13432;SDS011;6789;47.678;9.158;2023-09-19T21:04:13;3.53;;;1.92;;
13432;SDS011;6789;47.678;9.158;2023-09-19T21:09:19;2.85;;;1.83;;
13432;SDS011;6789;47.678;9.158;2023-09-19T21:14:20;3.85;;;2.03;;
13432;SDS011;6789;47.678;9.158;2023-09-19T21:19:12;3.13;;;1.98;;
13432;SDS011;6789;47.678;9.158;2023-09-19T21:24:04;2.90;;;2.20;;
13432;SDS011;6789;47.678;9.158;2023-09-19T21:28:57;4.95;;;2.30;;
13432;SDS011;6789;47.678;9.158;2023-09-19T21:33:49;4.32;;;1.90;;
13432;SDS011;6789;47.678;9.158;2023-09-19T21:38:41;4.32;;;2.33;;
13432;SDS011;6789;47.678;9.158;2023-09-19T21:43:33;3.50;;;2.20;;
13432;SDS011;6789;47.678;9.158;2023-09-19T21:48:26;6.43;;;2.47;;
13432;SDS011;6789;47.678;9.158;2023-09-19T21:53:18;3.67;;;2.38;;
13432;SDS011;6789;47.678;9.158;2023-09-19T21:58:10;6.57;;;2.55;;
13432;SDS011;6789;47.678;9.158;2023-09-19T22:03:02;2.78;;;2.45;;
13432;SDS011;6789;47.678;9.158;2023-09-19T22:08:34;3.63;;;2.42;;
13432;SDS011;6789;47.678;9.158;2023-09-19T22:13:30;3.35;;;2.42;;
13432;SDS011;6789;47.678;9.158;2023-09-19T22:18:22;4.10;;;2.67;;
13432;SDS011;6789;47.678;9.158;2023-09-19T22:23:15;4.28;;;2.67;;
13432;SDS011;6789;47.678;9.158;2023-09-19T22:28:08;3.20;;;2.38;;
13432;SDS011;6789;47.678;9.158;2023-09-19T22:33:02;6.72;;;2.15;;
13432;SDS011;6789;47.678;9.158;2023-09-19T22:37:55;3.08;;;2.22;;
13432;SDS011;6789;47.678;9.158;2023-09-19T22:42:58;2.47;;;2.13;;
13432;SDS011;6789;47.678;9.158;2023-09-19T22:47:52;2.63;;;1.90;;
13432;SDS011;6789;47.678;9.158;2023-09-19T22:52:49;2.55;;;2.08;;
13432;SDS011;6789;47.678;9.158;2023-09-19T22:57:41;4.32;;;2.63;;
13432;SDS011;6789;47.678;9.158;2023-09-19T23:02:34;3.45;;;2.28;;
13432;SDS011;6789;47.678;9.158;2023-09-19T23:07:26;3.90;;;1.92;;
13432;SDS011;6789;47.678;9.158;2023-09-19T23:12:19;3.42;;;1.95;;
13432;SDS011;6789;47.678;9.158;2023-09-19T23:17:14;2.08;;;1.75;;
13432;SDS011;6789;47.678;9.158;2023-09-19T23:22:12;4.22;;;2.13;;
13432;SDS011;6789;47.678;9.158;2023-09-19T23:27:14;1.80;;;1.50;;
13432;SDS011;6789;47.678;9.158;2023-09-19T23:32:09;2.40;;;1.50;;
13432;SDS011;6789;47.678;9.158;2023-09-19T23:37:02;2.58;;;1.50;;
13432;SDS011;6789;47.678;9.158;2023-09-19T23:41:54;4.10;;;1.65;;
13432;SDS011;6789;47.678;9.158;2023-09-19T23:46:47;2.25;;;1.75;;
13432;SDS011;6789;47.678;9.158;2023-09-19T23:51:45;2.95;;;1.90;;
13432;SDS011;6789;47.678;9.158;2023-09-19T23:56:39;1.77;;;1.50;;
